createdAt,value
2019-01-18T00:01:30.802Z,2.30
2019-01-18T00:03:58.998Z,2.50
2019-01-18T00:06:27.243Z,2.33
2019-01-18T00:08:55.350Z,2.47
2019-01-18T00:11:23.496Z,2.47
2019-01-18T00:13:51.596Z,2.37
2019-01-18T00:16:19.801Z,2.53
2019-01-18T00:18:48.228Z,2.50
2019-01-18T00:21:16.366Z,3.00
2019-01-18T00:23:44.478Z,2.80
2019-01-18T00:26:12.699Z,2.97
2019-01-18T00:28:40.807Z,2.57
2019-01-18T00:31:09.038Z,2.50
2019-01-18T00:33:37.139Z,3.17
2019-01-18T00:36:05.384Z,2.50
2019-01-18T00:38:33.562Z,2.50
2019-01-18T00:41:01.666Z,2.60
2019-01-18T00:43:29.793Z,2.63
2019-01-18T00:45:58.046Z,2.83
2019-01-18T00:48:26.369Z,2.37
2019-01-18T00:50:54.460Z,2.67
2019-01-18T00:53:22.554Z,2.47
2019-01-18T00:55:50.982Z,2.40
2019-01-18T00:58:19.085Z,2.33
2019-01-18T01:00:47.188Z,2.97
2019-01-18T01:03:15.426Z,2.33
2019-01-18T01:05:43.526Z,2.60
2019-01-18T01:08:11.680Z,2.40
2019-01-18T01:10:39.774Z,2.97
2019-01-18T01:13:07.872Z,2.70
2019-01-18T01:15:36.120Z,2.47
2019-01-18T01:18:04.556Z,2.43
2019-01-18T01:20:32.742Z,2.47
2019-01-18T01:23:01.040Z,2.77
2019-01-18T01:25:29.225Z,2.73
2019-01-18T01:27:57.353Z,2.17
2019-01-18T01:30:26.264Z,2.80
2019-01-18T01:32:54.651Z,2.80
2019-01-18T01:35:22.841Z,2.40
2019-01-18T01:37:50.965Z,2.70
2019-01-18T01:40:23.209Z,2.40
2019-01-18T01:42:51.321Z,2.40
2019-01-18T01:45:19.567Z,2.50
2019-01-18T01:47:47.695Z,2.67
2019-01-18T01:50:24.028Z,2.40
2019-01-18T01:52:52.238Z,2.50
2019-01-18T01:55:20.326Z,2.50
2019-01-18T01:57:48.462Z,2.30
2019-01-18T02:00:20.101Z,2.63
2019-01-18T02:02:48.369Z,2.87
2019-01-18T02:05:16.523Z,2.43
2019-01-18T02:07:44.639Z,2.37
2019-01-18T02:10:13.639Z,2.60
2019-01-18T02:12:41.866Z,2.63
2019-01-18T02:15:11.388Z,2.13
2019-01-18T02:17:39.625Z,2.40
2019-01-18T02:20:08.891Z,2.77
2019-01-18T02:22:37.026Z,3.23
2019-01-18T02:25:05.642Z,3.03
2019-01-18T02:27:33.627Z,3.20
2019-01-18T02:30:02.088Z,3.40
2019-01-18T02:32:30.118Z,3.27
2019-01-18T02:34:58.187Z,3.60
2019-01-18T02:37:26.286Z,3.47
2019-01-18T02:39:54.328Z,3.10
2019-01-18T02:42:22.434Z,3.60
2019-01-18T02:44:50.496Z,3.83
2019-01-18T02:47:18.543Z,3.50
2019-01-18T02:49:46.644Z,3.90
2019-01-18T02:52:14.751Z,3.87
2019-01-18T02:54:42.836Z,3.63
2019-01-18T02:57:10.882Z,3.43
2019-01-18T02:59:38.955Z,3.60
2019-01-18T03:02:06.993Z,3.20
2019-01-18T03:04:35.076Z,3.87
2019-01-18T03:07:03.782Z,3.47
2019-01-18T03:09:31.902Z,3.90
2019-01-18T03:11:59.998Z,3.80
2019-01-18T03:14:28.106Z,3.60
2019-01-18T03:16:56.166Z,4.17
2019-01-18T03:19:24.261Z,3.63
2019-01-18T03:21:52.302Z,3.43
2019-01-18T03:24:20.387Z,3.50
2019-01-18T03:26:48.430Z,3.20
2019-01-18T03:29:16.691Z,4.33
2019-01-18T03:31:44.817Z,3.50
2019-01-18T03:34:12.884Z,3.60
2019-01-18T03:36:41.016Z,3.50
2019-01-18T03:39:10.285Z,3.47
2019-01-18T03:41:39.129Z,3.70
2019-01-18T03:44:07.289Z,3.50
2019-01-18T03:46:35.447Z,3.90
2019-01-18T03:49:03.550Z,4.70
2019-01-18T03:51:31.668Z,5.47
2019-01-18T03:53:59.714Z,4.63
2019-01-18T03:56:27.791Z,4.30
2019-01-18T03:58:55.981Z,3.80
2019-01-18T04:01:24.062Z,3.93
2019-01-18T04:03:52.430Z,3.50
2019-01-18T04:06:20.570Z,3.60
2019-01-18T04:08:48.618Z,3.43
2019-01-18T04:11:16.703Z,2.93
2019-01-18T04:13:44.793Z,2.60
2019-01-18T04:16:12.993Z,2.70
2019-01-18T04:18:41.089Z,3.67
2019-01-18T04:21:09.150Z,3.23
2019-01-18T04:23:37.202Z,2.57
2019-01-18T04:26:05.292Z,2.93
2019-01-18T04:28:33.347Z,3.30
2019-01-18T04:31:02.554Z,3.43
2019-01-18T04:33:30.620Z,3.20
2019-01-18T04:35:58.694Z,2.60
2019-01-18T04:38:26.708Z,3.10
2019-01-18T04:40:54.766Z,3.00
2019-01-18T04:43:23.202Z,3.20
2019-01-18T04:45:51.200Z,3.93
2019-01-18T04:48:19.295Z,3.90
2019-01-18T04:50:47.341Z,4.13
2019-01-18T04:53:15.316Z,3.70
2019-01-18T04:55:43.432Z,3.87
2019-01-18T04:58:11.480Z,3.63
2019-01-18T05:00:41.029Z,3.33
2019-01-18T05:03:09.397Z,3.13
2019-01-18T05:05:37.448Z,3.67
2019-01-18T05:08:05.543Z,3.30
2019-01-18T05:10:34.344Z,3.10
2019-01-18T05:13:02.440Z,3.07
2019-01-18T05:15:31.711Z,3.20
2019-01-18T05:17:59.771Z,3.50
2019-01-18T05:20:27.897Z,2.87
2019-01-18T05:22:56.060Z,3.10
2019-01-18T05:25:24.189Z,3.70
2019-01-18T05:27:52.181Z,3.60
2019-01-18T05:30:24.630Z,3.80
2019-01-18T05:32:52.794Z,3.57
2019-01-18T05:35:20.994Z,3.87
2019-01-18T05:37:49.126Z,4.80
2019-01-18T05:40:17.749Z,5.40
2019-01-18T05:42:45.915Z,6.67
2019-01-18T05:45:15.189Z,5.87
2019-01-18T05:47:43.222Z,6.37
2019-01-18T05:50:12.705Z,5.70
2019-01-18T05:52:41.063Z,5.50
2019-01-18T05:55:09.256Z,4.70
2019-01-18T05:57:37.303Z,4.67
2019-01-18T06:00:07.225Z,4.87
2019-01-18T06:02:35.362Z,5.00
2019-01-18T06:05:04.239Z,4.53
2019-01-18T06:07:32.302Z,4.60
2019-01-18T06:10:00.582Z,4.73
2019-01-18T06:12:28.659Z,4.43
2019-01-18T06:14:56.779Z,4.40
2019-01-18T06:17:24.860Z,5.93
2019-01-18T06:19:52.984Z,5.80
2019-01-18T06:22:21.297Z,6.00
2019-01-18T06:24:49.367Z,5.30
2019-01-18T06:27:17.427Z,5.77
2019-01-18T06:29:45.623Z,6.10
2019-01-18T06:32:13.757Z,6.27
2019-01-18T06:34:41.800Z,5.97
2019-01-18T06:37:09.856Z,5.67
2019-01-18T06:39:37.978Z,4.70
2019-01-18T06:42:06.027Z,4.53
2019-01-18T06:44:34.219Z,4.20
2019-01-18T06:47:02.425Z,4.13
2019-01-18T06:49:30.583Z,4.40
2019-01-18T06:51:58.953Z,5.40
2019-01-18T06:54:27.008Z,4.67
2019-01-18T06:56:55.166Z,4.37
2019-01-18T06:59:23.262Z,4.40
2019-01-18T07:01:51.323Z,4.97
2019-01-18T07:04:19.482Z,4.87
2019-01-18T07:06:47.563Z,4.40
2019-01-18T07:09:15.621Z,4.13
2019-01-18T07:11:43.734Z,4.93
2019-01-18T07:14:11.786Z,4.53
2019-01-18T07:16:39.775Z,4.60
2019-01-18T07:19:07.877Z,4.87
2019-01-18T07:21:36.006Z,5.03
2019-01-18T07:24:04.364Z,4.80
2019-01-18T07:26:32.507Z,5.00
2019-01-18T07:29:00.579Z,5.13
2019-01-18T07:31:28.635Z,4.77
2019-01-18T07:33:56.814Z,4.57
2019-01-18T07:36:24.783Z,5.50
2019-01-18T07:38:52.978Z,5.53
2019-01-18T07:41:21.051Z,5.30
2019-01-18T07:43:49.105Z,5.07
2019-01-18T07:46:17.440Z,5.30
2019-01-18T07:48:45.532Z,5.77
2019-01-18T07:51:13.699Z,5.93
2019-01-18T07:53:41.789Z,5.53
2019-01-18T07:56:09.846Z,5.50
2019-01-18T07:58:37.882Z,5.90
2019-01-18T08:01:05.880Z,6.07
2019-01-18T08:03:34.048Z,5.23
2019-01-18T08:06:02.922Z,4.70
2019-01-18T08:08:31.076Z,4.70
2019-01-18T08:10:59.194Z,4.10
2019-01-18T08:13:27.375Z,4.77
2019-01-18T08:15:55.471Z,5.00
2019-01-18T08:18:23.517Z,4.80
2019-01-18T08:20:51.599Z,5.17
2019-01-18T08:23:19.761Z,4.10
2019-01-18T08:25:47.834Z,4.23
2019-01-18T08:28:15.856Z,3.67
2019-01-18T08:30:43.942Z,4.23
2019-01-18T08:33:11.913Z,4.33
2019-01-18T08:35:40.008Z,4.63
2019-01-18T08:38:08.119Z,4.53
2019-01-18T08:40:39.920Z,4.30
2019-01-18T08:43:09.329Z,5.50
2019-01-18T08:45:57.259Z,5.20
2019-01-18T08:48:25.508Z,4.80
2019-01-18T08:50:53.755Z,4.97
2019-01-18T08:53:21.812Z,4.57
2019-01-18T08:55:50.073Z,4.87
2019-01-18T08:58:18.519Z,4.90
2019-01-18T09:00:46.582Z,4.77
2019-01-18T09:03:14.639Z,4.07
2019-01-18T09:05:42.729Z,4.53
2019-01-18T09:08:10.883Z,4.40
2019-01-18T09:10:39.425Z,4.77
2019-01-18T09:13:07.498Z,4.03
2019-01-18T09:15:35.599Z,4.13
2019-01-18T09:18:03.910Z,4.10
2019-01-18T09:20:32.083Z,3.60
2019-01-18T09:23:00.232Z,3.90
2019-01-18T09:25:28.472Z,4.20
2019-01-18T09:27:56.787Z,4.13
2019-01-18T09:30:27.589Z,4.17
2019-01-18T09:32:55.931Z,3.57
2019-01-18T09:35:24.370Z,3.50
2019-01-18T09:37:52.535Z,3.50
2019-01-18T09:40:21.778Z,3.43
2019-01-18T09:42:49.826Z,3.07
2019-01-18T09:45:17.905Z,3.13
2019-01-18T09:47:45.996Z,3.60
2019-01-18T09:50:18.796Z,3.40
2019-01-18T09:52:46.992Z,3.43
2019-01-18T09:55:15.051Z,3.50
2019-01-18T09:57:43.142Z,3.60
2019-01-18T10:00:14.147Z,3.50
2019-01-18T10:02:42.305Z,3.60
2019-01-18T10:05:10.820Z,3.60
2019-01-18T10:07:38.897Z,3.70
2019-01-18T10:10:08.027Z,3.63
2019-01-18T10:12:36.108Z,3.63
2019-01-18T10:15:05.039Z,3.80
2019-01-18T10:17:33.243Z,4.30
2019-01-18T10:20:01.424Z,3.90
2019-01-18T10:22:29.615Z,3.23
2019-01-18T10:24:57.751Z,3.53
2019-01-18T10:27:26.254Z,3.57
2019-01-18T10:29:54.313Z,3.37
2019-01-18T10:32:22.381Z,3.17
2019-01-18T10:34:50.550Z,3.93
2019-01-18T10:37:18.629Z,3.50
2019-01-18T10:39:46.700Z,3.17
2019-01-18T10:42:14.787Z,3.77
2019-01-18T10:44:42.939Z,3.43
2019-01-18T10:47:11.162Z,3.17
2019-01-18T10:49:39.167Z,3.00
2019-01-18T10:52:07.218Z,3.13
2019-01-18T10:54:35.295Z,4.03
2019-01-18T10:57:03.358Z,4.00
2019-01-18T10:59:31.458Z,3.73
2019-01-18T11:02:03.331Z,3.70
2019-01-18T11:04:29.335Z,3.37
2019-01-18T11:06:57.384Z,3.20
2019-01-18T11:09:25.446Z,3.17
2019-01-18T11:11:53.435Z,3.60
2019-01-18T11:14:21.574Z,3.63
2019-01-18T11:16:49.634Z,3.53
2019-01-18T11:19:18.088Z,3.53
2019-01-18T11:21:46.248Z,3.70
2019-01-18T11:24:14.279Z,3.83
2019-01-18T11:26:42.393Z,4.00
2019-01-18T11:29:10.454Z,4.00
2019-01-18T11:31:38.546Z,3.80
2019-01-18T11:34:06.860Z,3.80
2019-01-18T11:36:34.939Z,4.07
2019-01-18T11:39:03.821Z,3.30
2019-01-18T11:41:31.809Z,3.13
2019-01-18T11:43:59.977Z,3.60
2019-01-18T11:46:28.081Z,4.30
2019-01-18T11:48:56.140Z,3.90
2019-01-18T11:51:24.238Z,3.60
2019-01-18T11:53:52.306Z,4.10
2019-01-18T11:56:20.433Z,3.53
2019-01-18T11:58:48.540Z,3.87
2019-01-18T12:01:16.593Z,2.80
2019-01-18T12:03:44.681Z,3.27
2019-01-18T12:06:12.763Z,4.53
2019-01-18T12:08:41.990Z,3.43
2019-01-18T12:11:10.207Z,3.97
2019-01-18T12:13:38.287Z,3.63
2019-01-18T12:16:06.397Z,3.57
2019-01-18T12:18:34.416Z,4.30
2019-01-18T12:21:02.650Z,4.13
2019-01-18T12:23:30.692Z,4.07
2019-01-18T12:25:58.831Z,3.97
2019-01-18T12:28:27.143Z,3.43
2019-01-18T12:30:55.227Z,3.00
2019-01-18T12:33:26.298Z,3.03
2019-01-18T12:35:54.495Z,3.57
2019-01-18T12:38:22.578Z,3.10
2019-01-18T12:40:50.674Z,3.20
2019-01-18T12:43:18.777Z,3.43
2019-01-18T12:45:46.907Z,3.00
2019-01-18T12:48:14.994Z,2.90
2019-01-18T12:50:43.163Z,2.40
2019-01-18T12:53:11.218Z,2.67
2019-01-18T12:55:39.300Z,2.80
2019-01-18T12:58:07.632Z,2.77
2019-01-18T13:00:35.915Z,2.90
2019-01-18T13:03:04.087Z,2.60
2019-01-18T13:05:51.534Z,2.90
2019-01-18T13:08:19.561Z,2.80
2019-01-18T13:10:47.603Z,3.30
2019-01-18T13:13:15.827Z,3.10
2019-01-18T13:16:03.216Z,2.20
2019-01-18T13:18:31.834Z,3.00
2019-01-18T13:20:59.886Z,2.60
2019-01-18T13:23:28.051Z,2.73
2019-01-18T13:25:56.131Z,3.00
2019-01-18T13:28:24.221Z,2.57
2019-01-18T13:30:52.348Z,3.13
2019-01-18T13:33:20.414Z,2.93
2019-01-18T13:35:48.576Z,2.30
2019-01-18T13:38:16.736Z,2.43
2019-01-18T13:40:44.826Z,2.60
2019-01-18T13:43:12.962Z,2.67
2019-01-18T13:45:41.667Z,2.67
2019-01-18T13:48:09.798Z,2.73
2019-01-18T13:50:37.912Z,2.60
2019-01-18T13:53:08.074Z,2.30
2019-01-18T13:55:36.083Z,2.67
2019-01-18T13:58:04.362Z,3.10
2019-01-18T14:00:32.663Z,3.00
2019-01-18T14:03:00.798Z,2.60
2019-01-18T14:05:28.865Z,2.80
2019-01-18T14:07:56.977Z,2.70
2019-01-18T14:10:26.236Z,2.70
2019-01-18T14:12:54.488Z,3.13
2019-01-18T14:15:23.334Z,2.90
2019-01-18T14:17:51.398Z,2.80
2019-01-18T14:20:21.051Z,2.70
2019-01-18T14:22:49.422Z,2.60
2019-01-18T14:25:17.625Z,2.80
2019-01-18T14:27:45.744Z,2.20
2019-01-18T14:30:18.621Z,2.30
2019-01-18T14:32:46.819Z,2.60
2019-01-18T14:35:14.883Z,2.67
2019-01-18T14:37:42.927Z,2.20
2019-01-18T14:40:14.149Z,2.40
2019-01-18T14:42:42.528Z,2.50
2019-01-18T14:45:12.302Z,2.50
2019-01-18T14:47:40.426Z,2.43
2019-01-18T14:50:09.820Z,2.80
2019-01-18T14:52:37.892Z,3.30
2019-01-18T14:55:05.955Z,3.53
2019-01-18T14:57:34.051Z,3.30
2019-01-18T15:00:02.174Z,2.97
2019-01-18T15:02:30.262Z,2.90
2019-01-18T15:04:58.315Z,2.67
2019-01-18T15:07:26.411Z,2.97
2019-01-18T15:09:57.567Z,3.10
2019-01-18T15:12:24.377Z,2.90
2019-01-18T15:14:52.462Z,2.90
2019-01-18T15:17:20.527Z,3.10
2019-01-18T15:19:48.635Z,2.70
2019-01-18T15:22:16.704Z,2.50
2019-01-18T15:24:44.814Z,2.97
2019-01-18T15:27:12.917Z,3.57
2019-01-18T15:29:41.146Z,2.90
2019-01-18T15:32:09.264Z,3.00
2019-01-18T15:34:37.305Z,3.30
2019-01-18T15:37:05.528Z,4.40
2019-01-18T15:39:33.651Z,4.77
2019-01-18T15:42:01.712Z,4.57
2019-01-18T15:44:29.883Z,3.70
2019-01-18T15:46:58.139Z,3.90
2019-01-18T15:49:26.288Z,4.13
2019-01-18T15:51:54.364Z,4.20
2019-01-18T15:54:22.426Z,4.20
2019-01-18T15:56:50.515Z,4.40
2019-01-18T15:59:18.531Z,4.17
2019-01-18T16:01:47.244Z,3.63
2019-01-18T16:04:15.322Z,3.67
2019-01-18T16:06:43.386Z,3.90
2019-01-18T16:09:11.579Z,3.33
2019-01-18T16:11:39.618Z,3.70
2019-01-18T16:14:07.687Z,3.60
2019-01-18T16:16:54.966Z,4.57
2019-01-18T16:19:23.028Z,4.77
2019-01-18T16:21:51.331Z,5.03
2019-01-18T16:24:19.408Z,5.50
2019-01-18T16:26:47.481Z,4.97
2019-01-18T16:29:15.582Z,5.27
2019-01-18T16:31:43.643Z,5.20
2019-01-18T16:34:11.909Z,5.20
2019-01-18T16:36:39.924Z,5.20
2019-01-18T16:39:09.176Z,5.23
2019-01-18T16:41:37.245Z,5.83
2019-01-18T16:44:05.375Z,6.40
2019-01-18T16:46:33.503Z,6.50
2019-01-18T16:49:01.600Z,7.20
2019-01-18T16:51:29.792Z,6.97
2019-01-18T16:53:57.863Z,7.47
2019-01-18T16:56:25.904Z,7.80
2019-01-18T16:58:54.008Z,8.80
2019-01-18T17:01:22.195Z,7.77
2019-01-18T17:03:50.301Z,9.23
2019-01-18T17:06:18.497Z,9.33
2019-01-18T17:08:46.599Z,10.70
2019-01-18T17:11:14.675Z,9.27
2019-01-18T17:13:42.879Z,9.63
2019-01-18T17:16:10.939Z,9.00
2019-01-18T17:18:39.193Z,8.90
2019-01-18T17:21:07.329Z,8.43
2019-01-18T17:23:35.371Z,8.90
2019-01-18T17:26:04.686Z,9.83
2019-01-18T17:28:32.755Z,9.23
2019-01-18T17:31:00.811Z,8.97
2019-01-18T17:33:28.916Z,8.67
2019-01-18T17:36:02.498Z,10.60
2019-01-18T17:38:44.223Z,10.77
2019-01-18T17:41:15.459Z,11.33
2019-01-18T17:44:02.650Z,11.23
2019-01-18T17:46:50.040Z,11.20
2019-01-18T17:49:31.296Z,11.00
2019-01-18T17:52:06.303Z,11.00
2019-01-18T17:54:43.695Z,10.57
2019-01-18T17:57:21.459Z,10.07
2019-01-18T18:00:10.234Z,10.13
2019-01-18T18:02:48.459Z,9.60
2019-01-18T18:05:20.840Z,9.67
2019-01-18T18:07:59.969Z,10.63
2019-01-18T18:10:47.108Z,9.73
2019-01-18T18:13:44.024Z,10.07
2019-01-18T18:16:28.655Z,9.57
2019-01-18T18:19:25.122Z,9.43
2019-01-18T18:22:13.165Z,9.37
2019-01-18T18:25:00.370Z,10.33
2019-01-18T18:27:32.947Z,10.67
2019-01-18T18:30:11.612Z,11.10
2019-01-18T18:32:57.642Z,11.10
2019-01-18T18:35:43.850Z,11.03
2019-01-18T18:38:29.713Z,11.63
2019-01-18T18:41:15.614Z,11.77
2019-01-18T18:44:01.559Z,12.07
2019-01-18T18:46:51.851Z,11.07
2019-01-18T18:49:44.640Z,10.77
2019-01-18T18:52:31.814Z,10.97
2019-01-18T18:55:21.891Z,11.70
2019-01-18T18:57:57.851Z,11.43
2019-01-18T19:00:51.324Z,11.10
2019-01-18T19:03:24.261Z,11.13
2019-01-18T19:06:04.855Z,11.03
2019-01-18T19:08:52.030Z,10.63
2019-01-18T19:11:38.294Z,10.33
2019-01-18T19:14:31.488Z,10.40
2019-01-18T19:17:08.652Z,10.87
2019-01-18T19:19:45.256Z,10.07
2019-01-18T19:22:31.445Z,9.53
2019-01-18T19:25:18.635Z,9.87
2019-01-18T19:28:12.569Z,9.50
2019-01-18T19:30:45.483Z,9.60
2019-01-18T19:33:45.809Z,8.97
2019-01-18T19:36:33.063Z,8.27
2019-01-18T19:39:26.176Z,8.63
2019-01-18T19:42:13.363Z,8.97
2019-01-18T19:44:56.127Z,8.53
2019-01-18T19:47:43.363Z,8.80
2019-01-18T19:50:39.817Z,9.63
2019-01-18T19:53:29.924Z,9.43
2019-01-18T19:56:07.451Z,9.80
2019-01-18T19:58:55.665Z,10.00
2019-01-18T20:01:30.075Z,10.23
2019-01-18T20:04:20.284Z,10.53
2019-01-18T20:07:13.745Z,10.40
2019-01-18T20:10:13.455Z,11.13
2019-01-18T20:13:13.035Z,11.57
2019-01-18T20:15:48.161Z,12.23
2019-01-18T20:18:39.596Z,13.03
2019-01-18T20:21:39.080Z,12.43
2019-01-18T20:24:25.042Z,12.30
2019-01-18T20:27:15.272Z,12.27
2019-01-18T20:29:56.820Z,12.40
2019-01-18T20:32:35.703Z,12.93
2019-01-18T20:35:25.662Z,12.83
2019-01-18T20:38:04.314Z,12.27
2019-01-18T20:40:51.819Z,13.23
2019-01-18T20:43:42.060Z,13.10
2019-01-18T20:46:28.235Z,14.10
2019-01-18T20:49:07.741Z,13.53
2019-01-18T20:51:42.334Z,14.27
2019-01-18T20:54:29.565Z,15.47
2019-01-18T20:57:20.529Z,15.30
2019-01-18T20:59:59.804Z,16.20
2019-01-18T21:02:50.012Z,16.70
2019-01-18T21:05:30.208Z,15.93
2019-01-18T21:08:23.578Z,15.47
2019-01-18T21:11:09.347Z,16.60
2019-01-18T21:13:53.886Z,17.03
2019-01-18T21:16:25.324Z,17.77
2019-01-18T21:19:07.386Z,19.40
2019-01-18T21:21:47.588Z,18.17
2019-01-18T21:24:28.139Z,18.10
2019-01-18T21:27:11.815Z,17.97
2019-01-18T21:29:52.644Z,17.63
2019-01-18T21:32:36.884Z,16.87
2019-01-18T21:35:14.334Z,16.17
2019-01-18T21:37:52.045Z,17.60
2019-01-18T21:40:24.977Z,18.10
2019-01-18T21:43:12.212Z,17.97
2019-01-18T21:45:57.984Z,19.07
2019-01-18T21:48:48.225Z,16.77
2019-01-18T21:51:20.315Z,16.93
2019-01-18T21:53:51.772Z,17.63
2019-01-18T21:56:42.044Z,17.60
2019-01-18T21:59:15.535Z,18.53
2019-01-18T22:02:05.752Z,17.90
2019-01-18T22:04:40.501Z,16.70
2019-01-18T22:07:40.895Z,16.50
2019-01-18T22:10:28.307Z,16.47
2019-01-18T22:13:12.195Z,16.67
2019-01-18T22:16:02.523Z,16.93
2019-01-18T22:18:59.095Z,17.60
2019-01-18T22:21:35.820Z,17.97
2019-01-18T22:24:29.575Z,19.73
2019-01-18T22:27:22.651Z,19.33
2019-01-18T22:30:02.603Z,19.03
2019-01-18T22:32:38.048Z,19.07
2019-01-18T22:35:31.086Z,18.83
2019-01-18T22:38:21.085Z,17.93
2019-01-18T22:41:17.155Z,18.03
2019-01-18T22:44:02.492Z,19.23
2019-01-18T22:46:43.512Z,17.97
2019-01-18T22:49:33.274Z,19.40
2019-01-18T22:52:13.689Z,19.80
2019-01-18T22:54:57.845Z,19.43
2019-01-18T22:57:34.668Z,18.60
2019-01-18T23:00:32.875Z,19.20
2019-01-18T23:03:06.966Z,19.13
2019-01-18T23:05:45.920Z,18.80
2019-01-18T23:08:32.112Z,18.40
2019-01-18T23:11:12.681Z,18.60
2019-01-18T23:14:09.064Z,18.33
2019-01-18T23:16:55.422Z,18.23
2019-01-18T23:19:42.655Z,18.63
2019-01-18T23:22:38.979Z,18.30
2019-01-18T23:25:28.882Z,18.97
2019-01-18T23:28:31.191Z,18.40
2019-01-18T23:31:11.538Z,18.70
2019-01-18T23:33:44.461Z,18.40
2019-01-18T23:36:18.892Z,17.53
2019-01-18T23:39:05.354Z,18.30
2019-01-18T23:41:55.334Z,18.47
2019-01-18T23:44:29.658Z,17.10
2019-01-18T23:47:19.886Z,17.27
2019-01-18T23:50:07.040Z,17.27
2019-01-18T23:52:54.253Z,17.80
2019-01-18T23:55:32.829Z,17.47
2019-01-18T23:58:23.013Z,16.87
